createdAt,value
2019-05-29T00:02:18.632Z,11.50
2019-05-29T00:04:47.559Z,11.50
2019-05-29T00:07:16.718Z,11.50
2019-05-29T00:09:46.570Z,11.50
2019-05-29T00:12:19.580Z,11.50
2019-05-29T00:14:46.908Z,11.50
2019-05-29T00:17:16.460Z,11.50
2019-05-29T00:19:45.601Z,11.50
2019-05-29T00:22:14.594Z,11.50
2019-05-29T00:24:44.797Z,11.50
2019-05-29T00:27:15.511Z,11.50
2019-05-29T00:29:45.347Z,11.40
2019-05-29T00:32:15.173Z,11.40
2019-05-29T00:34:44.731Z,11.40
2019-05-29T00:37:14.620Z,11.50
2019-05-29T00:39:43.557Z,11.60
2019-05-29T00:42:14.295Z,11.60
2019-05-29T00:44:43.868Z,11.70
2019-05-29T00:47:13.655Z,11.70
2019-05-29T00:49:43.404Z,11.60
2019-05-29T00:52:14.173Z,11.70
2019-05-29T00:54:43.303Z,11.60
2019-05-29T00:57:13.034Z,11.60
2019-05-29T00:59:42.499Z,11.50
2019-05-29T01:02:13.607Z,11.50
2019-05-29T01:04:42.995Z,11.40
2019-05-29T01:07:12.326Z,11.40
2019-05-29T01:09:42.004Z,11.40
2019-05-29T01:12:12.847Z,11.00
2019-05-29T01:14:50.241Z,11.00
2019-05-29T01:17:13.797Z,10.90
2019-05-29T01:19:42.666Z,10.90
2019-05-29T01:22:12.267Z,11.10
2019-05-29T01:24:41.755Z,11.30
2019-05-29T01:27:11.021Z,11.40
2019-05-29T01:29:41.122Z,11.50
2019-05-29T01:32:10.624Z,11.60
2019-05-29T01:34:39.752Z,11.60
2019-05-29T01:37:09.232Z,11.60
2019-05-29T01:39:38.371Z,11.70
2019-05-29T01:42:07.920Z,11.70
2019-05-29T01:44:37.529Z,11.70
2019-05-29T01:47:07.400Z,11.70
2019-05-29T01:49:37.157Z,11.70
2019-05-29T01:52:06.760Z,11.70
2019-05-29T01:54:36.072Z,11.40
2019-05-29T01:57:05.315Z,11.30
2019-05-29T01:59:34.564Z,11.40
2019-05-29T02:02:04.168Z,11.50
2019-05-29T02:04:33.771Z,11.50
2019-05-29T02:07:02.617Z,11.50
2019-05-29T02:09:32.151Z,11.60
2019-05-29T02:12:02.187Z,11.50
2019-05-29T02:14:30.944Z,11.50
2019-05-29T02:17:00.391Z,11.30
2019-05-29T02:19:29.784Z,11.10
2019-05-29T02:21:58.975Z,11.30
2019-05-29T02:24:28.217Z,11.20
2019-05-29T02:26:57.115Z,11.40
2019-05-29T02:29:26.976Z,11.10
2019-05-29T02:31:56.079Z,10.60
2019-05-29T02:34:26.885Z,10.40
2019-05-29T02:36:55.980Z,10.40
2019-05-29T02:39:25.694Z,10.40
2019-05-29T02:41:56.040Z,10.40
2019-05-29T02:44:25.504Z,10.60
2019-05-29T02:46:54.848Z,10.60
2019-05-29T02:49:23.925Z,10.70
2019-05-29T02:51:53.250Z,10.90
2019-05-29T02:54:22.602Z,10.90
2019-05-29T02:56:51.677Z,11.00
2019-05-29T02:59:21.316Z,11.00
2019-05-29T03:01:51.848Z,11.00
2019-05-29T03:04:21.723Z,10.90
2019-05-29T03:06:51.713Z,10.90
2019-05-29T03:09:22.696Z,10.90
2019-05-29T03:11:52.765Z,10.80
2019-05-29T03:14:22.891Z,10.80
2019-05-29T03:16:52.403Z,10.80
2019-05-29T03:19:23.797Z,10.80
2019-05-29T03:21:53.152Z,10.80
2019-05-29T03:24:22.340Z,10.70
2019-05-29T03:26:51.746Z,10.70
2019-05-29T03:29:21.141Z,10.60
2019-05-29T03:31:50.854Z,10.60
2019-05-29T03:34:19.649Z,10.60
2019-05-29T03:36:49.208Z,10.70
2019-05-29T03:39:18.860Z,10.60
2019-05-29T03:41:48.100Z,10.60
2019-05-29T03:44:17.353Z,10.60
2019-05-29T03:46:46.495Z,10.60
2019-05-29T03:49:15.854Z,10.30
2019-05-29T03:51:44.684Z,10.30
2019-05-29T03:54:13.912Z,10.20
2019-05-29T03:56:43.988Z,10.30
2019-05-29T03:59:13.316Z,10.30
2019-05-29T04:01:42.196Z,10.30
2019-05-29T04:04:11.373Z,10.20
2019-05-29T04:06:40.159Z,10.20
2019-05-29T04:09:09.805Z,10.20
2019-05-29T04:11:39.397Z,10.20
2019-05-29T04:14:09.170Z,10.30
2019-05-29T04:16:58.329Z,10.50
2019-05-29T04:19:13.801Z,10.60
2019-05-29T04:21:44.960Z,10.80
2019-05-29T04:24:15.960Z,11.00
2019-05-29T04:26:47.096Z,11.30
2019-05-29T04:29:17.249Z,11.50
2019-05-29T04:31:46.757Z,11.20
2019-05-29T04:34:15.586Z,11.20
2019-05-29T04:36:44.459Z,11.20
2019-05-29T04:39:14.091Z,11.50
2019-05-29T04:41:43.345Z,11.80
2019-05-29T04:44:12.699Z,12.10
2019-05-29T04:46:41.949Z,12.30
2019-05-29T04:49:10.771Z,12.20
2019-05-29T04:51:40.349Z,12.30
2019-05-29T04:54:09.742Z,12.40
2019-05-29T04:56:39.197Z,11.90
2019-05-29T04:59:08.224Z,11.60
2019-05-29T05:01:37.225Z,12.00
2019-05-29T05:04:06.947Z,12.30
2019-05-29T05:06:37.368Z,12.60
2019-05-29T05:09:07.616Z,12.50
2019-05-29T05:11:37.503Z,12.40
2019-05-29T05:14:06.908Z,12.80
2019-05-29T05:16:36.423Z,12.80
2019-05-29T05:19:05.382Z,12.40
2019-05-29T05:21:34.235Z,12.30
2019-05-29T05:24:03.900Z,12.20
2019-05-29T05:26:32.791Z,12.10
2019-05-29T05:29:02.204Z,12.30
2019-05-29T05:31:32.301Z,12.60
2019-05-29T05:34:02.056Z,12.70
2019-05-29T05:36:31.043Z,13.10
2019-05-29T05:39:00.306Z,13.50
2019-05-29T05:41:30.776Z,13.80
2019-05-29T05:44:00.523Z,13.60
2019-05-29T05:46:29.395Z,13.50
2019-05-29T05:48:58.952Z,13.60
2019-05-29T05:51:28.158Z,13.60
2019-05-29T05:53:57.348Z,13.60
2019-05-29T05:56:27.159Z,13.80
2019-05-29T05:58:57.076Z,13.70
2019-05-29T06:01:26.490Z,13.50
2019-05-29T06:03:56.008Z,13.70
2019-05-29T06:06:25.089Z,14.10
2019-05-29T06:08:54.992Z,14.60
2019-05-29T06:11:23.908Z,14.80
2019-05-29T06:13:53.804Z,15.10
2019-05-29T06:16:23.465Z,15.30
2019-05-29T06:18:52.424Z,15.60
2019-05-29T06:21:21.572Z,15.10
2019-05-29T06:23:51.248Z,14.70
2019-05-29T06:26:20.098Z,14.60
2019-05-29T06:28:48.883Z,14.90
2019-05-29T06:31:17.838Z,15.50
2019-05-29T06:33:47.005Z,15.70
2019-05-29T06:36:16.282Z,15.30
2019-05-29T06:38:45.467Z,15.60
2019-05-29T06:41:14.538Z,16.10
2019-05-29T06:43:44.325Z,16.50
2019-05-29T06:46:13.988Z,17.10
2019-05-29T06:48:56.456Z,17.20
2019-05-29T06:51:13.727Z,16.90
2019-05-29T06:53:43.948Z,17.10
2019-05-29T06:56:13.721Z,17.60
2019-05-29T06:58:44.332Z,17.30
2019-05-29T07:01:13.712Z,17.90
2019-05-29T07:03:43.992Z,18.40
2019-05-29T07:06:12.956Z,18.50
2019-05-29T07:08:47.537Z,18.30
2019-05-29T07:11:13.244Z,19.00
2019-05-29T07:13:45.232Z,19.80
2019-05-29T07:16:13.008Z,19.40
2019-05-29T07:19:20.356Z,18.90
2019-05-29T07:21:12.892Z,17.70
2019-05-29T07:23:45.142Z,17.10
2019-05-29T07:26:13.508Z,16.60
2019-05-29T07:29:05.452Z,16.50
2019-05-29T07:31:13.324Z,16.40
2019-05-29T07:33:43.179Z,16.60
2019-05-29T07:36:12.568Z,17.20
2019-05-29T07:38:46.057Z,17.70
2019-05-29T07:41:12.724Z,17.70
2019-05-29T07:43:42.225Z,18.10
2019-05-29T07:46:11.456Z,18.80
2019-05-29T07:48:40.510Z,19.50
2019-05-29T07:51:09.440Z,20.20
2019-05-29T07:53:40.105Z,20.70
2019-05-29T07:56:22.203Z,20.00
2019-05-29T07:58:43.324Z,19.20
2019-05-29T08:01:13.650Z,18.50
2019-05-29T08:03:43.494Z,18.10
2019-05-29T08:06:12.616Z,18.30
2019-05-29T08:08:43.233Z,18.30
2019-05-29T08:11:12.417Z,18.30
2019-05-29T08:13:41.521Z,17.90
2019-05-29T08:16:10.527Z,17.90
2019-05-29T08:18:41.087Z,18.20
2019-05-29T08:21:10.534Z,18.90
2019-05-29T08:23:40.287Z,19.40
2019-05-29T08:26:09.739Z,19.50
2019-05-29T08:28:38.638Z,19.50
2019-05-29T08:31:07.958Z,19.90
2019-05-29T08:33:37.333Z,20.20
2019-05-29T08:36:06.620Z,20.20
2019-05-29T08:38:36.052Z,20.40
2019-05-29T08:41:05.991Z,20.30
2019-05-29T08:43:35.353Z,20.50
2019-05-29T08:46:04.365Z,20.50
2019-05-29T08:48:33.961Z,20.70
2019-05-29T08:51:02.920Z,21.30
2019-05-29T08:53:32.034Z,21.40
2019-05-29T08:56:02.097Z,20.90
2019-05-29T08:58:31.507Z,21.50
2019-05-29T09:01:06.824Z,21.80
2019-05-29T09:03:35.828Z,22.60
2019-05-29T09:06:08.880Z,22.80
2019-05-29T09:08:35.760Z,22.80
2019-05-29T09:11:04.741Z,22.00
2019-05-29T09:13:33.736Z,21.60
2019-05-29T09:16:03.233Z,22.40
2019-05-29T09:18:32.212Z,23.20
2019-05-29T09:21:03.736Z,24.00
2019-05-29T09:23:32.095Z,23.90
2019-05-29T09:26:14.158Z,23.80
2019-05-29T09:28:30.758Z,24.20
2019-05-29T09:30:59.556Z,23.80
2019-05-29T09:33:28.637Z,22.60
2019-05-29T09:35:57.983Z,22.00
2019-05-29T09:38:27.544Z,21.90
2019-05-29T09:40:57.053Z,22.50
2019-05-29T09:43:30.660Z,23.00
2019-05-29T09:46:01.901Z,23.60
2019-05-29T09:48:29.404Z,23.20
2019-05-29T09:50:58.758Z,21.90
2019-05-29T09:53:27.629Z,20.90
2019-05-29T09:55:57.876Z,20.70
2019-05-29T09:58:28.524Z,21.40
2019-05-29T10:01:16.010Z,22.10
2019-05-29T10:03:28.770Z,23.10
2019-05-29T10:05:59.369Z,23.10
2019-05-29T10:08:28.425Z,24.10
2019-05-29T10:11:06.855Z,24.80
2019-05-29T10:13:29.738Z,24.50
2019-05-29T10:15:59.419Z,24.80
2019-05-29T10:18:32.442Z,24.10
2019-05-29T10:21:03.680Z,25.00
2019-05-29T10:23:33.075Z,25.90
2019-05-29T10:26:04.644Z,26.00
2019-05-29T10:28:50.214Z,25.10
2019-05-29T10:31:05.144Z,23.60
2019-05-29T10:33:34.803Z,23.10
2019-05-29T10:36:04.418Z,23.30
2019-05-29T10:38:33.739Z,24.20
2019-05-29T10:41:06.608Z,25.50
2019-05-29T10:43:35.089Z,26.30
2019-05-29T10:46:04.483Z,25.90
2019-05-29T10:48:34.047Z,25.80
2019-05-29T10:51:03.785Z,25.70
2019-05-29T10:53:32.682Z,25.10
2019-05-29T10:56:02.178Z,24.70
2019-05-29T10:58:47.666Z,24.90
2019-05-29T11:01:03.011Z,25.60
2019-05-29T11:03:32.145Z,25.90
2019-05-29T11:06:01.520Z,25.70
2019-05-29T11:08:31.262Z,25.80
2019-05-29T11:11:00.636Z,25.90
2019-05-29T11:13:30.142Z,25.70
2019-05-29T11:15:59.905Z,25.00
2019-05-29T11:18:29.459Z,24.70
2019-05-29T11:20:58.758Z,25.30
2019-05-29T11:23:27.635Z,25.60
2019-05-29T11:25:58.206Z,26.00
2019-05-29T11:28:27.473Z,25.90
2019-05-29T11:30:57.337Z,25.80
2019-05-29T11:33:26.491Z,25.20
2019-05-29T11:36:07.971Z,24.80
2019-05-29T11:38:27.028Z,24.80
2019-05-29T11:41:19.449Z,24.80
2019-05-29T11:43:27.224Z,25.40
2019-05-29T11:45:57.312Z,26.20
2019-05-29T11:48:27.010Z,26.20
2019-05-29T11:50:56.308Z,26.70
2019-05-29T11:53:25.904Z,26.40
2019-05-29T11:55:55.850Z,25.50
2019-05-29T11:58:30.896Z,25.10
2019-05-29T12:00:57.141Z,25.30
2019-05-29T12:03:26.111Z,24.60
2019-05-29T12:05:55.616Z,25.20
2019-05-29T12:08:24.913Z,26.20
2019-05-29T12:10:55.350Z,25.90
2019-05-29T12:13:24.632Z,26.10
2019-05-29T12:15:53.732Z,27.20
2019-05-29T12:18:24.434Z,28.30
2019-05-29T12:20:54.100Z,28.70
2019-05-29T12:23:26.776Z,29.20
2019-05-29T12:26:13.942Z,29.30
2019-05-29T12:28:25.999Z,30.00
2019-05-29T12:30:56.802Z,29.90
2019-05-29T12:33:26.032Z,28.50
2019-05-29T12:35:55.480Z,27.90
2019-05-29T12:38:24.822Z,27.40
2019-05-29T12:40:55.290Z,27.00
2019-05-29T12:43:27.605Z,26.80
2019-05-29T12:45:55.700Z,25.70
2019-05-29T12:48:24.805Z,26.50
2019-05-29T12:50:54.108Z,27.60
2019-05-29T12:53:30.039Z,27.90
2019-05-29T12:55:56.119Z,27.30
2019-05-29T12:58:25.452Z,27.30
2019-05-29T13:00:56.287Z,27.40
2019-05-29T13:03:26.106Z,27.50
2019-05-29T13:05:56.091Z,27.10
2019-05-29T13:08:25.348Z,27.10
2019-05-29T13:10:56.130Z,26.30
2019-05-29T13:13:25.325Z,26.70
2019-05-29T13:15:54.873Z,27.00
2019-05-29T13:18:24.175Z,25.60
2019-05-29T13:20:54.685Z,25.20
2019-05-29T13:23:24.369Z,24.60
2019-05-29T13:25:53.538Z,24.50
2019-05-29T13:28:22.760Z,23.90
2019-05-29T13:30:51.565Z,24.20
2019-05-29T13:33:21.052Z,23.90
2019-05-29T13:35:50.203Z,24.00
2019-05-29T13:38:19.860Z,24.80
2019-05-29T13:40:49.369Z,25.20
2019-05-29T13:43:18.576Z,25.70
2019-05-29T13:45:47.724Z,26.80
2019-05-29T13:48:16.528Z,26.70
2019-05-29T13:50:48.694Z,26.50
2019-05-29T13:53:17.098Z,26.20
2019-05-29T13:55:46.181Z,26.70
2019-05-29T13:58:15.069Z,27.70
2019-05-29T14:00:44.820Z,28.20
2019-05-29T14:03:13.724Z,26.50
2019-05-29T14:05:42.822Z,25.70
2019-05-29T14:08:12.401Z,25.40
2019-05-29T14:10:41.820Z,25.00
2019-05-29T14:13:11.120Z,24.10
2019-05-29T14:15:40.180Z,23.70
2019-05-29T14:18:09.494Z,23.80
2019-05-29T14:20:38.735Z,24.00
2019-05-29T14:23:09.457Z,24.30
2019-05-29T14:25:39.240Z,25.10
2019-05-29T14:28:08.793Z,25.10
2019-05-29T14:30:37.828Z,24.60
2019-05-29T14:33:12.602Z,25.20
2019-05-29T14:35:38.348Z,25.80
2019-05-29T14:38:10.827Z,26.00
2019-05-29T14:40:38.477Z,26.60
2019-05-29T14:43:11.347Z,27.40
2019-05-29T14:45:38.782Z,27.70
2019-05-29T14:48:08.216Z,26.70
2019-05-29T14:50:37.591Z,26.60
2019-05-29T14:53:09.252Z,25.30
2019-05-29T14:55:38.608Z,24.80
2019-05-29T14:58:08.281Z,24.60
2019-05-29T15:00:37.663Z,23.80
2019-05-29T15:03:07.373Z,23.70
2019-05-29T15:05:36.553Z,24.00
2019-05-29T15:08:05.851Z,23.80
2019-05-29T15:10:35.083Z,23.70
2019-05-29T15:13:06.576Z,23.90
2019-05-29T15:15:36.857Z,23.90
2019-05-29T15:18:07.006Z,23.70
2019-05-29T15:20:36.244Z,23.90
2019-05-29T15:23:05.230Z,23.80
2019-05-29T15:25:34.935Z,23.10
2019-05-29T15:28:08.598Z,22.70
2019-05-29T15:30:40.016Z,22.20
2019-05-29T15:33:10.777Z,22.20
2019-05-29T15:35:40.451Z,22.00
2019-05-29T15:38:10.780Z,22.90
2019-05-29T15:40:39.790Z,22.90
2019-05-29T15:43:08.864Z,22.40
2019-05-29T15:45:37.770Z,22.80
2019-05-29T15:48:08.835Z,23.20
2019-05-29T15:50:37.799Z,22.90
2019-05-29T15:53:07.171Z,22.30
2019-05-29T15:55:37.201Z,21.70
2019-05-29T15:58:07.262Z,21.40
2019-05-29T16:00:36.522Z,21.30
2019-05-29T16:03:05.825Z,21.20
2019-05-29T16:05:35.400Z,21.40
2019-05-29T16:08:04.355Z,21.50
2019-05-29T16:10:33.540Z,22.20
2019-05-29T16:13:02.601Z,21.80
2019-05-29T16:15:31.784Z,21.30
2019-05-29T16:18:02.089Z,22.20
2019-05-29T16:20:31.082Z,22.80
2019-05-29T16:23:00.012Z,23.20
2019-05-29T16:25:39.390Z,23.30
2019-05-29T16:28:00.261Z,22.70
2019-05-29T16:30:29.224Z,21.60
2019-05-29T16:32:58.487Z,21.10
2019-05-29T16:35:27.745Z,20.70
2019-05-29T16:37:56.920Z,20.20
2019-05-29T16:40:25.906Z,20.10
2019-05-29T16:42:55.052Z,20.40
2019-05-29T16:45:24.352Z,21.10
2019-05-29T16:47:53.532Z,21.40
2019-05-29T16:50:23.765Z,21.10
2019-05-29T16:52:53.337Z,20.80
2019-05-29T16:55:23.110Z,20.40
2019-05-29T16:57:52.223Z,19.70
2019-05-29T17:00:23.456Z,18.90
2019-05-29T17:02:52.459Z,18.40
2019-05-29T17:05:22.188Z,18.10
2019-05-29T17:07:51.618Z,18.20
2019-05-29T17:10:25.344Z,18.30
2019-05-29T17:12:54.592Z,18.50
2019-05-29T17:15:24.669Z,18.50
2019-05-29T17:17:54.322Z,18.30
2019-05-29T17:20:40.675Z,18.30
2019-05-29T17:23:10.184Z,18.10
2019-05-29T17:25:39.332Z,18.20
2019-05-29T17:28:08.315Z,17.90
2019-05-29T17:30:37.193Z,17.70
2019-05-29T17:33:19.213Z,17.60
2019-05-29T17:35:49.065Z,17.50
2019-05-29T17:38:19.022Z,17.10
2019-05-29T17:40:48.264Z,16.60
2019-05-29T17:43:21.450Z,16.40
2019-05-29T17:45:48.639Z,16.30
2019-05-29T17:48:17.852Z,16.20
2019-05-29T17:50:47.196Z,16.20
2019-05-29T17:53:16.035Z,16.10
2019-05-29T17:55:46.830Z,16.00
2019-05-29T17:58:16.421Z,16.00
2019-05-29T18:00:45.441Z,16.10
2019-05-29T18:03:14.389Z,16.10
2019-05-29T18:05:47.059Z,16.10
2019-05-29T18:08:16.830Z,16.20
2019-05-29T18:10:46.387Z,16.20
2019-05-29T18:13:16.888Z,16.20
2019-05-29T18:15:46.728Z,16.20
2019-05-29T18:18:17.367Z,16.10
2019-05-29T18:20:46.581Z,16.00
2019-05-29T18:23:17.423Z,15.90
2019-05-29T18:25:47.389Z,15.90
2019-05-29T18:28:16.291Z,15.80
2019-05-29T18:30:45.413Z,15.60
2019-05-29T18:33:14.633Z,15.50
2019-05-29T18:35:43.512Z,15.40
2019-05-29T18:38:12.832Z,15.20
2019-05-29T18:40:41.839Z,15.00
2019-05-29T18:43:10.724Z,14.90
2019-05-29T18:45:39.721Z,14.80
2019-05-29T18:48:08.896Z,14.80
2019-05-29T18:50:38.343Z,14.60
2019-05-29T18:53:07.800Z,14.50
2019-05-29T18:55:37.433Z,14.40
2019-05-29T18:58:06.380Z,14.40
2019-05-29T19:00:35.503Z,14.30
2019-05-29T19:03:04.467Z,14.20
2019-05-29T19:05:33.484Z,14.00
2019-05-29T19:08:03.622Z,13.80
2019-05-29T19:10:33.104Z,13.50
2019-05-29T19:13:03.843Z,13.20
2019-05-29T19:15:34.642Z,12.90
2019-05-29T19:18:04.019Z,12.90
2019-05-29T19:20:33.262Z,12.90
2019-05-29T19:23:02.970Z,12.80
2019-05-29T19:25:33.023Z,12.70
2019-05-29T19:28:02.472Z,12.60
2019-05-29T19:30:32.945Z,12.60
2019-05-29T19:33:03.137Z,12.30
2019-05-29T19:35:33.834Z,12.20
2019-05-29T19:38:02.852Z,12.10
2019-05-29T19:40:32.329Z,12.10
2019-05-29T19:43:03.002Z,12.10
2019-05-29T19:45:32.608Z,11.90
2019-05-29T19:48:01.549Z,11.80
2019-05-29T19:50:30.927Z,11.60
2019-05-29T19:53:00.809Z,11.50
2019-05-29T19:55:33.132Z,11.40
2019-05-29T19:58:02.290Z,11.40
2019-05-29T20:00:32.152Z,11.40
2019-05-29T20:03:01.611Z,11.40
2019-05-29T20:05:32.733Z,11.50
2019-05-29T20:08:05.774Z,11.60
2019-05-29T20:10:35.473Z,11.60
2019-05-29T20:13:04.987Z,11.70
2019-05-29T20:15:36.004Z,11.70
2019-05-29T20:18:05.178Z,11.60
2019-05-29T20:20:34.587Z,11.50
2019-05-29T20:23:06.132Z,11.30
2019-05-29T20:25:35.035Z,11.20
2019-05-29T20:28:06.605Z,11.10
2019-05-29T20:30:34.903Z,11.00
2019-05-29T20:33:04.040Z,11.00
2019-05-29T20:35:33.452Z,11.10
2019-05-29T20:38:06.990Z,11.20
2019-05-29T20:47:20.420Z,11.20
2019-05-29T20:49:49.208Z,11.10
2019-05-29T20:52:19.035Z,11.00
2019-05-29T20:54:47.845Z,11.00
2019-05-29T20:57:17.456Z,10.90
2019-05-29T20:59:46.641Z,11.00
2019-05-29T21:02:15.704Z,11.00
2019-05-29T21:04:45.223Z,11.00
2019-05-29T21:07:14.428Z,11.10
2019-05-29T21:09:43.512Z,11.10
2019-05-29T21:12:13.062Z,11.20
2019-05-29T21:14:42.030Z,11.30
2019-05-29T21:17:11.254Z,11.30
2019-05-29T21:19:40.375Z,11.30
2019-05-29T21:22:09.289Z,11.40
2019-05-29T21:24:39.048Z,11.50
2019-05-29T21:27:08.825Z,11.60
2019-05-29T21:29:39.190Z,11.60
2019-05-29T21:32:08.653Z,11.70
2019-05-29T21:34:37.899Z,11.90
2019-05-29T21:37:07.797Z,12.00
2019-05-29T21:39:38.327Z,12.10
2019-05-29T21:42:07.588Z,12.20
2019-05-29T21:44:37.114Z,12.20
2019-05-29T21:47:06.375Z,12.20
2019-05-29T21:49:35.355Z,12.20
2019-05-29T21:52:04.888Z,12.10
2019-05-29T21:54:33.837Z,12.10
2019-05-29T21:57:02.939Z,12.00
2019-05-29T21:59:31.911Z,11.90
2019-05-29T22:02:05.885Z,12.00
2019-05-29T22:04:35.016Z,12.00
2019-05-29T22:07:04.728Z,12.00
2019-05-29T22:09:34.316Z,12.00
2019-05-29T22:12:03.320Z,12.00
2019-05-29T22:14:32.656Z,11.80
2019-05-29T22:17:01.911Z,11.80
2019-05-29T22:19:30.964Z,11.90
2019-05-29T22:22:01.316Z,12.00
2019-05-29T22:24:31.015Z,12.00
2019-05-29T22:27:01.501Z,12.00
2019-05-29T22:29:30.641Z,12.00
2019-05-29T22:31:59.792Z,11.90
2019-05-29T22:34:29.107Z,11.90
2019-05-29T22:36:59.550Z,12.00
2019-05-29T22:39:29.589Z,12.00
2019-05-29T22:41:59.659Z,11.90
2019-05-29T22:44:29.342Z,11.90
2019-05-29T22:46:59.801Z,12.00
2019-05-29T22:49:29.044Z,12.00
2019-05-29T22:51:58.351Z,12.10
2019-05-29T22:54:27.491Z,12.00
2019-05-29T22:56:57.872Z,12.20
2019-05-29T22:59:31.937Z,12.30
2019-05-29T23:01:58.244Z,12.30
2019-05-29T23:04:27.334Z,12.20
2019-05-29T23:06:56.504Z,12.20
2019-05-29T23:09:25.611Z,12.30
2019-05-29T23:11:54.783Z,12.20
2019-05-29T23:14:23.984Z,12.20
2019-05-29T23:16:54.360Z,12.10
2019-05-29T23:19:23.324Z,12.20
2019-05-29T23:21:54.334Z,12.20
2019-05-29T23:24:23.516Z,12.20
2019-05-29T23:26:53.243Z,12.20
2019-05-29T23:29:22.683Z,12.20
2019-05-29T23:31:52.722Z,12.20
2019-05-29T23:34:22.093Z,12.10
2019-05-29T23:36:51.254Z,12.00
2019-05-29T23:39:20.275Z,12.10
2019-05-29T23:41:49.713Z,12.10
2019-05-29T23:44:18.619Z,12.20
2019-05-29T23:46:47.897Z,12.20
2019-05-29T23:49:17.037Z,12.20
2019-05-29T23:51:45.984Z,12.20
2019-05-29T23:54:15.195Z,12.20
2019-05-29T23:56:44.089Z,12.20
2019-05-29T23:59:12.997Z,12.20
